Pagrindinis puslapis
METAR-TAF:

METAR-TAF

Oro uostai :

Ajakučas, Peru

platuma: 13-08S, ilguma: 074-13W, Aukštis: 2740 m

Dabartinis oras

Ataskaita buvo paskelbta 2 valandos ir 55 minutes, ne 23:00 UTC
Vėjas 14 kt iš Vakarų
Temperatūra 18°C
Drėgmė 37%
Slėgis 1025 hPa
Matomumas 10 km arba daugiau
Mažai debesys ne aukštis 3500 ft
Su prošvaistėmis ne aukštis 6000 ft
Liūtis kaimynystėje

METAR: SPHO 162300Z 28014KT 9999 VCSH FEW035 BKN060 18/03 Q1025 RMK PP000

Laikas: 20:55 (01:55 UTC)

Prognozė

Ataskaita buvo paskelbta 8 valandos ir 55 minutes, ne 17:00 UTC
Prognozė galioja nuo 16 metu 18 UTC su 17 metu 18 UTC
Vėjas 5 kt nuo kintamojo kryptimis
Matomumas 10 km arba daugiau
Mažai debesys ne aukštis 3000 ft
Su prošvaistėmis ne aukštis 10000 ft

TAF: SPHO 161700Z 1618/1718 VRB05KT 9999 FEW030 BKN100 TX21/1619Z TN08/1711Z

Orai ataskaitas ir orų prognozės (METAR, TAF).

turimą stotys yra geltonos ir raudonos taškus žemėlapyje.

Perkelti pele per norėdami pamatyti stoties vardą.

Tada spustelėkite, norėdami matyti oro stebėjimo ir prognozės.

Norėdami pakeisti žemėlapį: spustelėkite ant žalios mygtukų su juodo kryžiaus žemyn,; žalią mygtuką su brūkšneliu, jei norite nutolinti; arba žalių rodyklių gretimoms žemėlapius.


METAR-TAF: